Time;durP1;ratioP1;P1;durP2;ratioP2;P2;SDS_P1;SDS_P2;PMS_P1;PMS_P2;Temp;Humidity;BMP_temperature;BMP_pressure;BME280_temperature;BME280_humidity;BME280_pressure;Samples;Min_cycle;Max_cycle;Signal;HPM_P1;HPM_P2
2023/12/28 00:02:13;;;;;;;6.57;2.27;;;8.30;99.90;;;;;;5040738;28;20504;-80
2023/12/28 00:04:39;;;;;;;4.77;2.00;;;8.30;99.90;;;;;;5040857;28;20512;-80
2023/12/28 00:07:08;;;;;;;4.50;1.77;;;8.30;99.90;;;;;;5042845;28;20459;-80
2023/12/28 00:09:34;;;;;;;4.13;1.97;;;8.30;99.90;;;;;;5043734;28;20461;-80
2023/12/28 00:12:03;;;;;;;3.53;2.10;;;8.30;99.90;;;;;;5045256;28;20502;-77
2023/12/28 00:14:33;;;;;;;2.50;1.60;;;8.30;99.90;;;;;;5053290;28;20491;-77
2023/12/28 00:17:00;;;;;;;3.67;2.27;;;8.20;99.90;;;;;;5054032;28;21241;-78
2023/12/28 00:19:28;;;;;;;2.60;2.13;;;8.30;99.90;;;;;;5049072;28;20541;-80
2023/12/28 00:21:57;;;;;;;4.07;1.80;;;8.30;99.90;;;;;;5043399;28;20475;-77
2023/12/28 00:24:29;;;;;;;3.20;1.80;;;8.30;99.90;;;;;;5043728;28;20930;-78
2023/12/28 00:26:56;;;;;;;2.20;1.67;;;8.30;99.90;;;;;;5043265;28;20492;-80
2023/12/28 00:29:22;;;;;;;3.30;1.90;;;8.30;99.90;;;;;;5039748;28;20473;-78
2023/12/28 00:31:49;;;;;;;2.80;1.83;;;8.30;99.90;;;;;;5042782;28;20507;-79
2023/12/28 00:34:19;;;;;;;4.50;2.17;;;8.40;99.90;;;;;;5042188;28;20551;-80
2023/12/28 00:36:47;;;;;;;4.70;2.10;;;8.40;99.90;;;;;;5039969;28;20462;-80
2023/12/28 00:39:15;;;;;;;5.60;2.10;;;8.40;99.90;;;;;;5041676;28;20455;-78
2023/12/28 00:41:42;;;;;;;4.30;1.93;;;8.50;99.90;;;;;;5042903;28;20530;-80
2023/12/28 00:44:09;;;;;;;3.40;2.17;;;8.50;99.90;;;;;;5041541;28;20486;-78
2023/12/28 00:46:36;;;;;;;2.37;1.90;;;8.50;99.90;;;;;;5028428;28;20498;-81
2023/12/28 00:49:03;;;;;;;4.67;2.20;;;8.50;99.90;;;;;;5040543;28;20471;-80
2023/12/28 00:51:30;;;;;;;3.37;2.10;;;8.60;99.90;;;;;;5041617;28;20934;-80
2023/12/28 00:53:58;;;;;;;3.40;2.20;;;8.50;99.90;;;;;;5040569;28;20477;-79
2023/12/28 00:56:25;;;;;;;2.43;1.73;;;8.50;99.90;;;;;;5034581;28;20963;-80
2023/12/28 00:58:52;;;;;;;3.50;2.10;;;8.50;99.90;;;;;;5040985;28;20476;-79
2023/12/28 01:01:19;;;;;;;2.83;2.07;;;8.50;99.90;;;;;;5041418;28;20854;-80
2023/12/28 01:03:49;;;;;;;6.10;2.77;;;8.50;99.90;;;;;;5040791;28;20457;-80
2023/12/28 01:06:16;;;;;;;4.10;2.47;;;8.50;99.90;;;;;;5039905;28;20487;-80
2023/12/28 01:08:43;;;;;;;4.13;2.30;;;8.50;99.90;;;;;;5037705;28;20448;-80
2023/12/28 01:11:12;;;;;;;2.10;1.30;;;8.50;99.90;;;;;;5038265;28;20549;-78
2023/12/28 01:13:39;;;;;;;2.63;1.90;;;8.60;99.90;;;;;;5038519;28;20461;-80
2023/12/28 01:16:06;;;;;;;2.37;2.00;;;8.60;99.90;;;;;;5037583;28;20478;-81
2023/12/28 01:18:33;;;;;;;2.80;1.67;;;8.60;99.90;;;;;;5036689;28;20461;-80
2023/12/28 01:21:00;;;;;;;4.93;2.20;;;8.70;99.90;;;;;;5037623;28;20869;-78
2023/12/28 01:23:27;;;;;;;2.40;2.00;;;8.70;99.90;;;;;;5038655;28;20460;-81
2023/12/28 01:25:55;;;;;;;2.20;1.80;;;8.70;99.90;;;;;;5037051;28;20485;-81
2023/12/28 01:28:24;;;;;;;5.03;2.37;;;8.80;99.90;;;;;;5037487;28;20466;-80
2023/12/28 01:30:50;;;;;;;1.97;1.53;;;8.80;99.90;;;;;;5036642;28;20464;-81
2023/12/28 01:33:17;;;;;;;2.30;1.80;;;8.80;99.90;;;;;;5036126;28;20542;-80
2023/12/28 01:35:44;;;;;;;3.23;2.17;;;8.90;99.90;;;;;;5036542;28;20955;-79
2023/12/28 01:38:11;;;;;;;2.70;1.70;;;9.00;99.90;;;;;;5036450;28;20456;-79
2023/12/28 01:40:38;;;;;;;3.93;2.10;;;9.10;99.90;;;;;;5036231;28;21001;-79
2023/12/28 01:43:04;;;;;;;3.50;1.70;;;9.20;99.90;;;;;;5036480;28;20464;-79
2023/12/28 01:45:32;;;;;;;4.30;2.47;;;9.30;99.90;;;;;;5035798;28;20878;-79
2023/12/28 01:48:00;;;;;;;2.90;1.83;;;9.40;99.90;;;;;;5036780;28;20469;-80
2023/12/28 01:50:28;;;;;;;6.27;1.73;;;9.50;99.90;;;;;;5035655;28;20476;-79
2023/12/28 01:52:56;;;;;;;2.23;1.67;;;9.60;99.90;;;;;;5036332;28;20765;-79
2023/12/28 01:55:23;;;;;;;2.60;1.60;;;9.70;99.90;;;;;;5036120;28;20543;-79
2023/12/28 01:57:50;;;;;;;2.50;2.10;;;9.70;99.90;;;;;;5036432;28;20472;-80
2023/12/28 02:00:17;;;;;;;1.97;1.50;;;9.70;99.90;;;;;;5036792;28;21010;-80
2023/12/28 02:02:46;;;;;;;2.53;1.50;;;9.70;99.90;;;;;;5037183;28;20458;-80
2023/12/28 02:05:13;;;;;;;3.70;1.70;;;9.80;99.90;;;;;;5036489;28;20532;-79
2023/12/28 02:07:39;;;;;;;2.30;1.63;;;9.80;99.90;;;;;;5036098;28;20466;-80
2023/12/28 02:10:07;;;;;;;2.67;1.70;;;9.80;99.90;;;;;;5037326;28;20545;-79
2023/12/28 02:12:34;;;;;;;2.87;1.50;;;9.80;99.90;;;;;;5037149;28;20495;-80
2023/12/28 02:15:01;;;;;;;2.77;1.60;;;9.90;99.90;;;;;;5036782;28;20539;-78
2023/12/28 02:17:34;;;;;;;4.00;2.43;;;9.80;99.90;;;;;;5035412;28;20456;-80
2023/12/28 02:20:05;;;;;;;2.30;1.77;;;9.80;99.90;;;;;;5037446;28;20470;-79
2023/12/28 02:22:32;;;;;;;2.73;1.83;;;9.70;99.90;;;;;;5030827;28;20483;-78
2023/12/28 02:25:05;;;;;;;6.63;2.20;;;9.70;99.90;;;;;;5037703;28;20464;-79
2023/12/28 02:27:32;;;;;;;2.10;1.57;;;9.70;99.90;;;;;;5036809;28;20491;-78
2023/12/28 02:29:59;;;;;;;3.00;1.70;;;9.70;99.90;;;;;;5037691;28;20491;-77
2023/12/28 02:32:36;;;;;;;3.50;1.83;;;9.70;99.90;;;;;;5037323;28;20567;-79
2023/12/28 02:35:11;;;;;;;5.90;1.53;;;9.80;99.90;;;;;;5039258;28;20468;-78
2023/12/28 02:37:39;;;;;;;4.50;1.93;;;9.90;99.90;;;;;;5033222;28;20586;-78
2023/12/28 02:40:09;;;;;;;2.00;1.30;;;9.80;99.90;;;;;;5044340;28;20830;-79
2023/12/28 02:42:36;;;;;;;3.03;1.77;;;9.90;99.90;;;;;;5037371;28;20576;-78
2023/12/28 02:45:06;;;;;;;4.57;2.10;;;9.90;99.90;;;;;;5038325;28;20460;-80
2023/12/28 02:47:32;;;;;;;3.30;1.50;;;10.00;99.90;;;;;;5043125;28;20527;-79
2023/12/28 02:50:00;;;;;;;3.27;1.83;;;9.90;99.90;;;;;;5041047;28;20480;-80
2023/12/28 02:52:26;;;;;;;2.50;2.03;;;10.00;99.90;;;;;;5039503;28;20460;-79
2023/12/28 02:54:53;;;;;;;3.80;1.67;;;10.00;99.90;;;;;;5039139;28;20460;-79
2023/12/28 02:57:21;;;;;;;2.90;1.70;;;9.90;99.90;;;;;;5039042;28;20547;-80
2023/12/28 02:59:48;;;;;;;2.63;1.90;;;9.90;99.90;;;;;;5039248;28;20525;-80
2023/12/28 03:02:15;;;;;;;2.30;2.07;;;9.80;99.90;;;;;;5039801;28;20468;-79
2023/12/28 03:04:42;;;;;;;4.00;1.73;;;9.80;99.90;;;;;;5040329;28;20510;-79
2023/12/28 03:07:09;;;;;;;5.17;2.30;;;9.80;99.90;;;;;;5041380;28;20563;-78
2023/12/28 03:09:38;;;;;;;4.33;1.83;;;9.70;99.90;;;;;;5042769;28;20564;-79
2023/12/28 03:12:08;;;;;;;4.27;1.70;;;9.70;99.90;;;;;;5043455;28;20551;-79
2023/12/28 03:14:36;;;;;;;3.00;1.93;;;9.70;99.90;;;;;;5043580;28;20452;-80
2023/12/28 03:17:04;;;;;;;4.93;2.27;;;9.70;99.90;;;;;;5039493;28;20526;-80
2023/12/28 03:19:31;;;;;;;2.00;1.60;;;9.60;99.90;;;;;;5040916;28;20498;-79
2023/12/28 03:21:58;;;;;;;2.87;1.53;;;9.70;99.90;;;;;;5038640;28;20476;-78
2023/12/28 03:24:24;;;;;;;2.67;1.70;;;9.70;99.90;;;;;;5039802;28;20448;-79
2023/12/28 03:26:51;;;;;;;7.10;1.83;;;9.80;99.90;;;;;;5041045;28;20742;-80
2023/12/28 03:29:18;;;;;;;6.70;1.63;;;9.80;99.90;;;;;;5042065;28;20501;-76
2023/12/28 03:31:46;;;;;;;4.93;2.17;;;9.80;99.90;;;;;;5043764;28;20489;-79
2023/12/28 03:34:14;;;;;;;6.40;3.07;;;9.80;99.90;;;;;;5041954;28;20527;-78
2023/12/28 03:36:41;;;;;;;2.97;1.97;;;9.80;99.90;;;;;;5043673;28;21033;-80
2023/12/28 03:39:08;;;;;;;4.70;2.40;;;9.80;99.90;;;;;;5043719;28;20461;-79
2023/12/28 03:41:35;;;;;;;4.00;2.30;;;9.90;99.90;;;;;;5043124;28;20565;-79
2023/12/28 03:44:02;;;;;;;6.37;2.77;;;9.80;99.90;;;;;;5042646;28;20473;-80
2023/12/28 03:46:30;;;;;;;4.83;1.97;;;9.90;99.90;;;;;;5043006;28;20501;-79
2023/12/28 03:48:58;;;;;;;4.50;2.33;;;9.80;99.90;;;;;;5042985;28;20453;-79
2023/12/28 03:51:25;;;;;;;3.40;1.80;;;9.90;99.90;;;;;;5043410;28;20482;-80
2023/12/28 03:53:52;;;;;;;3.27;1.63;;;9.80;99.90;;;;;;5042996;28;20532;-79
2023/12/28 03:56:23;;;;;;;5.83;1.97;;;9.90;99.90;;;;;;5051113;28;20467;-78
2023/12/28 03:58:50;;;;;;;4.73;2.00;;;9.90;99.90;;;;;;5055807;28;20464;-78
2023/12/28 04:01:18;;;;;;;3.57;2.00;;;9.90;99.90;;;;;;5051986;28;20554;-79
2023/12/28 04:03:45;;;;;;;5.13;2.03;;;9.90;99.90;;;;;;5047120;28;20459;-77
2023/12/28 04:06:13;;;;;;;3.20;1.83;;;9.90;99.90;;;;;;5046402;28;20550;-78
2023/12/28 04:08:40;;;;;;;3.50;2.00;;;10.00;99.90;;;;;;5042647;28;20543;-77
2023/12/28 04:11:07;;;;;;;3.47;2.27;;;10.00;99.90;;;;;;5044231;28;20490;-77
2023/12/28 04:13:34;;;;;;;3.03;1.77;;;9.90;99.90;;;;;;5045140;28;20523;-78
2023/12/28 04:16:01;;;;;;;3.53;1.60;;;10.00;99.90;;;;;;5044515;28;20451;-77
2023/12/28 04:18:28;;;;;;;2.20;1.63;;;10.00;99.90;;;;;;5044580;28;20453;-78
2023/12/28 04:20:55;;;;;;;4.50;2.20;;;10.00;99.90;;;;;;5043834;28;20504;-78
2023/12/28 04:23:23;;;;;;;3.40;2.10;;;10.10;99.90;;;;;;5044174;28;20535;-76
2023/12/28 04:25:50;;;;;;;3.17;1.60;;;10.10;99.90;;;;;;5046401;28;20493;-78
2023/12/28 04:28:16;;;;;;;2.20;1.90;;;10.10;99.90;;;;;;5051801;28;20531;-78
2023/12/28 04:30:43;;;;;;;3.37;1.80;;;10.20;99.90;;;;;;5051264;28;20543;-78
2023/12/28 04:33:10;;;;;;;3.40;2.00;;;10.30;99.90;;;;;;5051300;28;20535;-77
2023/12/28 04:35:37;;;;;;;4.47;2.07;;;10.30;99.90;;;;;;5050079;28;20495;-77
2023/12/28 04:38:04;;;;;;;3.30;1.70;;;10.30;99.90;;;;;;5050342;28;20452;-78
2023/12/28 04:40:33;;;;;;;2.73;1.77;;;10.30;99.90;;;;;;5042716;28;20563;-78
2023/12/28 04:43:00;;;;;;;3.10;1.73;;;10.30;99.90;;;;;;5042135;28;20532;-78
2023/12/28 04:45:27;;;;;;;3.83;1.50;;;10.30;99.90;;;;;;5041617;28;20944;-78
2023/12/28 04:47:54;;;;;;;4.03;1.80;;;10.40;99.90;;;;;;5041897;28;20488;-78
2023/12/28 04:50:21;;;;;;;2.93;1.50;;;10.40;99.90;;;;;;5041669;28;20483;-77
2023/12/28 04:52:47;;;;;;;3.50;1.47;;;10.40;99.90;;;;;;5043481;28;20497;-78
2023/12/28 04:55:15;;;;;;;5.70;2.13;;;10.40;99.90;;;;;;5043661;28;20534;-78
2023/12/28 04:57:43;;;;;;;3.10;1.60;;;10.40;99.90;;;;;;5042935;28;21032;-78
2023/12/28 05:00:11;;;;;;;4.97;2.10;;;10.50;99.90;;;;;;5042279;28;20476;-78
2023/12/28 05:02:37;;;;;;;4.90;1.47;;;10.60;99.90;;;;;;5036327;28;20501;-78
2023/12/28 05:05:05;;;;;;;9.17;2.23;;;10.50;99.90;;;;;;5037387;28;20874;-78
2023/12/28 05:07:31;;;;;;;4.73;1.70;;;10.60;99.90;;;;;;5034416;28;20578;-75
2023/12/28 05:09:58;;;;;;;2.90;1.60;;;10.60;99.90;;;;;;5038605;28;20453;-77
2023/12/28 05:12:25;;;;;;;2.77;1.37;;;10.60;99.90;;;;;;5030988;28;20460;-78
2023/12/28 05:14:53;;;;;;;4.33;1.50;;;10.60;99.90;;;;;;5039278;28;20452;-78
2023/12/28 05:17:20;;;;;;;2.90;1.70;;;10.60;99.90;;;;;;5039530;28;20489;-77
2023/12/28 05:19:47;;;;;;;4.67;1.97;;;10.60;99.90;;;;;;5040459;28;20469;-78
2023/12/28 05:22:14;;;;;;;9.03;3.13;;;10.60;99.90;;;;;;5040611;28;20566;-78
2023/12/28 05:24:40;;;;;;;3.17;1.73;;;10.60;99.90;;;;;;5041775;28;20467;-78
2023/12/28 05:27:07;;;;;;;4.43;1.70;;;10.50;99.90;;;;;;5041104;28;20491;-78
2023/12/28 05:29:34;;;;;;;5.63;1.83;;;10.50;99.90;;;;;;5042352;28;20539;-76
2023/12/28 05:32:02;;;;;;;2.50;1.47;;;10.60;99.90;;;;;;5042573;28;20601;-78
2023/12/28 05:34:29;;;;;;;5.43;1.37;;;10.60;99.90;;;;;;5043036;28;20550;-78
2023/12/28 05:36:56;;;;;;;5.03;1.47;;;10.60;99.90;;;;;;5042091;28;20452;-78
2023/12/28 05:39:23;;;;;;;5.30;1.47;;;10.60;99.90;;;;;;5043383;28;20558;-78
2023/12/28 05:41:50;;;;;;;3.50;1.50;;;10.60;99.90;;;;;;5042474;28;20567;-78
2023/12/28 05:44:17;;;;;;;2.77;1.70;;;10.70;99.90;;;;;;5043696;28;20483;-77
2023/12/28 05:46:44;;;;;;;3.30;1.57;;;10.70;99.90;;;;;;5041968;28;20531;-77
2023/12/28 05:49:12;;;;;;;2.10;1.70;;;10.70;99.90;;;;;;5041829;28;20457;-78
2023/12/28 05:51:40;;;;;;;3.50;1.70;;;10.70;99.90;;;;;;5039781;28;20548;-78
2023/12/28 05:54:07;;;;;;;4.40;2.43;;;10.60;99.90;;;;;;5039743;28;20460;-77
2023/12/28 05:56:34;;;;;;;4.10;1.50;;;10.60;99.90;;;;;;5042077;28;20512;-78
2023/12/28 05:59:01;;;;;;;2.10;1.40;;;10.60;99.90;;;;;;5039949;28;20483;-78
2023/12/28 06:01:28;;;;;;;3.60;1.73;;;10.60;99.90;;;;;;5040943;28;20867;-78
2023/12/28 06:03:54;;;;;;;4.53;1.60;;;10.60;99.90;;;;;;5039942;28;20463;-77
2023/12/28 06:06:22;;;;;;;4.13;1.43;;;10.60;99.90;;;;;;5039214;28;20524;-78
2023/12/28 06:08:49;;;;;;;2.90;1.50;;;10.60;99.90;;;;;;5041323;28;20516;-77
2023/12/28 06:11:16;;;;;;;4.97;1.87;;;10.60;99.90;;;;;;5040201;28;20489;-77
2023/12/28 06:13:43;;;;;;;2.60;1.53;;;10.60;99.90;;;;;;5040280;28;20456;-78
2023/12/28 06:16:10;;;;;;;5.27;1.60;;;10.60;99.90;;;;;;5039663;28;20543;-77
2023/12/28 06:18:37;;;;;;;4.63;2.30;;;10.50;99.90;;;;;;5040023;28;20460;-79
2023/12/28 06:21:06;;;;;;;2.40;1.30;;;10.60;99.90;;;;;;5039153;28;20543;-77
2023/12/28 06:23:34;;;;;;;2.70;1.20;;;10.60;99.90;;;;;;5039762;28;20471;-78
2023/12/28 06:26:06;;;;;;;3.10;1.40;;;10.60;99.90;;;;;;5021961;28;20521;-78
2023/12/28 06:28:33;;;;;;;6.70;1.70;;;10.60;99.90;;;;;;5038787;28;20496;-78
2023/12/28 06:31:00;;;;;;;3.73;1.60;;;10.60;99.90;;;;;;5038087;28;20559;-77
2023/12/28 06:33:28;;;;;;;3.03;1.50;;;10.60;99.90;;;;;;5037500;28;20460;-78
2023/12/28 06:35:57;;;;;;;9.50;2.30;;;10.60;99.90;;;;;;5039973;28;20462;-78
2023/12/28 06:38:24;;;;;;;2.87;1.77;;;10.50;99.90;;;;;;5039781;28;20448;-75
2023/12/28 06:40:53;;;;;;;3.00;1.50;;;10.50;99.90;;;;;;5040168;28;20564;-78
2023/12/28 06:43:19;;;;;;;4.97;1.80;;;10.50;99.90;;;;;;5039939;28;20542;-76
2023/12/28 06:45:46;;;;;;;11.03;2.00;;;10.40;99.90;;;;;;5038600;28;20459;-78
2023/12/28 06:48:13;;;;;;;2.97;1.47;;;10.40;99.90;;;;;;5038823;28;20505;-78
2023/12/28 06:50:40;;;;;;;10.10;2.47;;;10.40;99.90;;;;;;5038819;28;20487;-77
2023/12/28 06:53:06;;;;;;;3.97;1.90;;;10.40;99.90;;;;;;5036365;28;20491;-76
2023/12/28 06:55:34;;;;;;;7.03;1.80;;;10.30;99.90;;;;;;5036611;28;20463;-77
2023/12/28 06:58:03;;;;;;;3.33;1.67;;;10.30;99.90;;;;;;5035666;28;20448;-77
2023/12/28 07:00:29;;;;;;;6.33;1.43;;;10.20;99.90;;;;;;5035958;28;20579;-76
2023/12/28 07:02:56;;;;;;;3.20;1.10;;;10.20;99.90;;;;;;5037104;28;20459;-77
2023/12/28 07:05:23;;;;;;;4.27;1.20;;;10.10;99.90;;;;;;5037731;28;20987;-78
2023/12/28 07:07:50;;;;;;;4.43;1.63;;;10.10;99.90;;;;;;5038126;28;20495;-78
2023/12/28 07:10:16;;;;;;;5.93;2.03;;;10.10;99.90;;;;;;5036334;28;20558;-78
2023/12/28 07:12:43;;;;;;;5.10;1.80;;;10.20;99.90;;;;;;5036973;28;20544;-78
2023/12/28 07:15:14;;;;;;;2.73;1.33;;;10.20;99.90;;;;;;5035136;28;20500;-77
2023/12/28 07:17:41;;;;;;;3.80;1.50;;;10.30;99.90;;;;;;5034128;28;20507;-78
2023/12/28 07:20:10;;;;;;;3.40;1.57;;;10.30;99.90;;;;;;5033879;28;20524;-77
2023/12/28 07:22:37;;;;;;;4.13;1.50;;;10.30;99.90;;;;;;5032486;28;20468;-77
2023/12/28 07:25:05;;;;;;;3.20;1.47;;;10.30;99.90;;;;;;5033415;28;20486;-77
2023/12/28 07:27:32;;;;;;;9.33;1.97;;;10.30;99.90;;;;;;5032455;28;20495;-77
2023/12/28 07:29:59;;;;;;;5.60;1.60;;;10.30;99.90;;;;;;5033513;28;20456;-76
2023/12/28 07:32:27;;;;;;;3.37;1.53;;;10.20;99.90;;;;;;5033324;28;20456;-77
2023/12/28 07:34:54;;;;;;;3.30;2.00;;;10.20;99.90;;;;;;5033941;28;20800;-77
2023/12/28 07:37:21;;;;;;;5.80;1.87;;;10.20;99.90;;;;;;5033767;28;20452;-77
2023/12/28 07:39:48;;;;;;;5.70;1.43;;;10.20;99.90;;;;;;5033533;28;20459;-77
2023/12/28 07:42:15;;;;;;;4.57;1.73;;;10.20;99.90;;;;;;5041677;28;20481;-76
2023/12/28 07:44:42;;;;;;;4.67;1.73;;;10.30;99.90;;;;;;5040778;28;20488;-77
2023/12/28 07:47:09;;;;;;;4.53;1.70;;;10.40;99.90;;;;;;5039057;28;20967;-76
2023/12/28 07:49:37;;;;;;;4.20;1.73;;;10.40;99.90;;;;;;5038485;28;20459;-77
2023/12/28 07:52:04;;;;;;;7.10;1.80;;;10.50;99.90;;;;;;5042004;28;20508;-77
2023/12/28 07:54:31;;;;;;;4.50;2.63;;;10.40;99.90;;;;;;5034589;28;20452;-77
2023/12/28 07:56:57;;;;;;;4.23;1.47;;;10.50;99.90;;;;;;5035620;28;20824;-77
2023/12/28 07:59:24;;;;;;;3.60;2.40;;;10.50;99.90;;;;;;5033141;28;20479;-77
2023/12/28 08:01:51;;;;;;;3.57;1.67;;;10.50;99.90;;;;;;5035527;28;20472;-77
2023/12/28 08:04:18;;;;;;;7.20;1.63;;;10.50;99.90;;;;;;5035754;28;20495;-77
2023/12/28 08:06:49;;;;;;;4.40;1.80;;;10.50;99.90;;;;;;5035244;28;20550;-77
2023/12/28 08:09:18;;;;;;;3.70;1.60;;;10.60;99.90;;;;;;5035816;28;20491;-77
2023/12/28 08:11:45;;;;;;;5.93;2.03;;;10.60;99.90;;;;;;5037524;28;20476;-77
2023/12/28 08:14:12;;;;;;;2.93;1.50;;;10.60;99.90;;;;;;5036549;28;20476;-77
2023/12/28 08:16:39;;;;;;;3.23;1.50;;;10.60;99.90;;;;;;5037421;28;20477;-77
2023/12/28 08:19:05;;;;;;;9.57;2.27;;;10.60;99.90;;;;;;5041980;28;20971;-78
2023/12/28 08:21:32;;;;;;;4.80;1.30;;;10.50;99.90;;;;;;5039825;28;20539;-77
2023/12/28 08:24:00;;;;;;;6.60;1.80;;;10.60;99.90;;;;;;5038973;28;20480;-77
2023/12/28 08:26:27;;;;;;;3.97;1.40;;;10.60;99.90;;;;;;5040278;28;20454;-76
2023/12/28 08:28:54;;;;;;;3.93;1.37;;;10.70;99.90;;;;;;5036873;28;20483;-76
2023/12/28 08:31:21;;;;;;;5.33;1.80;;;10.70;99.90;;;;;;5038570;28;20547;-77
2023/12/28 08:33:47;;;;;;;2.77;1.40;;;10.70;99.90;;;;;;5041670;28;20452;-78
2023/12/28 08:36:17;;;;;;;4.03;1.70;;;10.70;99.90;;;;;;5041683;28;20451;-78
2023/12/28 08:38:44;;;;;;;6.60;1.67;;;10.70;99.90;;;;;;5039259;28;20460;-77
2023/12/28 08:41:20;;;;;;;3.03;1.50;;;10.80;99.90;;;;;;5038040;28;20976;-77
2023/12/28 08:43:47;;;;;;;6.60;1.50;;;10.80;99.90;;;;;;5040973;28;20504;-78
2023/12/28 08:46:14;;;;;;;3.37;1.30;;;10.80;99.90;;;;;;5042798;28;20546;-76
2023/12/28 08:48:41;;;;;;;5.20;1.50;;;10.80;99.90;;;;;;5041535;28;20496;-76
2023/12/28 08:51:08;;;;;;;5.20;2.47;;;10.80;99.90;;;;;;5038054;28;20483;-77
2023/12/28 08:53:35;;;;;;;5.33;1.70;;;10.90;99.90;;;;;;5038420;28;20456;-77
2023/12/28 08:56:02;;;;;;;3.47;1.60;;;10.90;99.90;;;;;;5038713;28;20496;-78
2023/12/28 08:58:30;;;;;;;7.63;1.70;;;10.90;99.90;;;;;;5039196;28;20467;-78
2023/12/28 09:00:57;;;;;;;6.60;1.93;;;10.90;99.90;;;;;;5040030;28;20476;-78
2023/12/28 09:03:24;;;;;;;3.53;1.43;;;11.00;99.90;;;;;;5040125;28;20495;-77
2023/12/28 09:05:50;;;;;;;3.20;1.70;;;11.00;99.90;;;;;;5037678;28;20457;-77
2023/12/28 09:08:17;;;;;;;6.33;2.17;;;11.10;99.90;;;;;;5037430;28;20480;-76
2023/12/28 09:10:44;;;;;;;3.07;1.43;;;11.10;99.90;;;;;;5036669;28;20572;-76
2023/12/28 09:13:16;;;;;;;4.43;1.40;;;11.10;99.90;;;;;;5036747;28;20452;-77
2023/12/28 09:15:45;;;;;;;3.60;1.47;;;11.10;99.90;;;;;;5037398;28;20492;-77
2023/12/28 09:18:12;;;;;;;4.83;2.10;;;11.20;99.90;;;;;;5036500;28;20469;-78
2023/12/28 09:20:40;;;;;;;8.20;2.00;;;11.20;99.90;;;;;;5035025;28;20552;-77
2023/12/28 09:23:07;;;;;;;4.60;1.53;;;11.20;99.90;;;;;;5036911;28;20455;-78
2023/12/28 09:25:34;;;;;;;5.20;1.50;;;11.30;99.90;;;;;;5036967;28;20445;-77
2023/12/28 09:28:00;;;;;;;7.37;3.60;;;11.20;99.90;;;;;;5034868;28;20487;-77
2023/12/28 09:30:27;;;;;;;13.03;5.30;;;11.20;99.90;;;;;;5038914;28;20862;-77
2023/12/28 09:32:55;;;;;;;3.90;2.13;;;11.20;99.90;;;;;;5035173;28;20525;-77
2023/12/28 09:35:22;;;;;;;4.63;1.70;;;11.10;99.90;;;;;;5038204;28;20461;-78
2023/12/28 09:37:49;;;;;;;4.03;2.50;;;11.20;99.90;;;;;;5039725;28;20484;-78
2023/12/28 09:40:16;;;;;;;8.00;2.27;;;11.20;99.90;;;;;;5037666;28;20461;-77
2023/12/28 09:42:52;;;;;;;5.10;1.60;;;11.30;99.90;;;;;;5037664;28;20484;-77
2023/12/28 09:45:20;;;;;;;9.40;1.93;;;11.30;99.90;;;;;;5039165;28;20487;-77
2023/12/28 09:47:50;;;;;;;6.40;1.40;;;11.30;99.90;;;;;;5038273;28;20449;-78
2023/12/28 09:50:19;;;;;;;5.83;1.57;;;11.40;99.90;;;;;;5037814;28;20563;-78
2023/12/28 09:52:46;;;;;;;4.63;1.57;;;11.50;99.90;;;;;;5037852;28;20961;-77
2023/12/28 09:55:13;;;;;;;8.80;2.20;;;11.60;99.90;;;;;;5038152;28;20491;-77
2023/12/28 09:57:41;;;;;;;6.70;1.73;;;11.70;99.90;;;;;;5040738;28;20504;-80
2023/12/28 10:00:11;;;;;;;8.10;2.00;;;11.70;99.90;;;;;;5038708;28;20473;-79
2023/12/28 10:02:40;;;;;;;4.23;1.50;;;11.50;99.90;;;;;;5036547;28;20555;-79
2023/12/28 10:05:08;;;;;;;9.30;2.57;;;11.50;99.90;;;;;;5036009;28;20540;-78
2023/12/28 10:07:42;;;;;;;5.80;1.67;;;11.50;99.90;;;;;;5035967;28;20472;-79
2023/12/28 10:10:09;;;;;;;5.07;2.10;;;11.40;99.90;;;;;;5035468;28;21026;-76
2023/12/28 10:12:37;;;;;;;5.60;1.80;;;11.40;99.90;;;;;;5036586;28;20437;-77
2023/12/28 10:15:05;;;;;;;6.30;2.40;;;11.40;99.90;;;;;;5038948;28;20512;-77
2023/12/28 10:17:34;;;;;;;6.57;2.13;;;11.40;99.90;;;;;;5037308;28;20460;-76
2023/12/28 10:20:04;;;;;;;6.90;1.83;;;11.60;99.90;;;;;;5041742;28;20938;-80
2023/12/28 10:22:31;;;;;;;4.67;1.87;;;11.50;99.90;;;;;;5041278;28;20445;-78
2023/12/28 10:25:00;;;;;;;7.00;2.43;;;11.60;99.90;;;;;;5041748;28;20481;-78
2023/12/28 10:27:27;;;;;;;4.30;2.10;;;11.70;99.90;;;;;;5043872;28;20537;-78
2023/12/28 10:29:56;;;;;;;8.80;1.90;;;11.60;99.90;;;;;;5044015;28;20496;-76
2023/12/28 10:32:24;;;;;;;7.37;1.83;;;11.50;99.90;;;;;;5040470;28;20463;-78
2023/12/28 10:34:52;;;;;;;6.33;1.90;;;11.50;99.90;;;;;;5035342;28;20846;-79
2023/12/28 10:37:20;;;;;;;6.17;2.10;;;11.60;99.90;;;;;;5036324;28;20464;-78
2023/12/28 10:39:50;;;;;;;6.17;2.23;;;11.60;99.90;;;;;;5037170;28;20945;-79
2023/12/28 10:42:30;;;;;;;6.60;1.53;;;11.60;99.90;;;;;;5039037;28;20449;-79
2023/12/28 10:45:04;;;;;;;11.93;2.43;;;11.70;99.90;;;;;;5037952;28;20460;-79
2023/12/28 10:47:34;;;;;;;8.87;1.90;;;11.60;99.90;;;;;;5029646;28;20453;-79
2023/12/28 10:50:05;;;;;;;3.13;1.47;;;11.60;99.90;;;;;;5038953;28;20496;-79
2023/12/28 10:52:33;;;;;;;5.87;1.63;;;11.60;99.90;;;;;;5038038;28;20496;-79
2023/12/28 10:55:22;;;;;;;8.17;1.97;;;11.50;99.90;;;;;;5035739;28;20469;-78
2023/12/28 10:58:00;;;;;;;3.83;1.33;;;11.70;99.90;;;;;;5032022;28;20445;-78
2023/12/28 11:00:31;;;;;;;6.90;1.90;;;11.70;99.90;;;;;;5037242;28;20474;-79
2023/12/28 11:03:04;;;;;;;4.47;1.60;;;11.80;99.90;;;;;;5038640;28;20624;-79
2023/12/28 11:05:34;;;;;;;13.10;1.57;;;11.80;99.90;;;;;;5037285;28;20481;-79
2023/12/28 11:08:02;;;;;;;13.93;2.60;;;11.80;99.90;;;;;;5033412;28;20469;-78
2023/12/28 11:10:30;;;;;;;7.47;1.73;;;11.80;99.90;;;;;;5041434;28;20473;-79
2023/12/28 11:13:00;;;;;;;11.10;3.90;;;11.80;99.90;;;;;;5047309;28;20488;-78
2023/12/28 11:15:28;;;;;;;5.40;1.73;;;11.80;99.90;;;;;;5050670;28;20457;-79
2023/12/28 11:17:55;;;;;;;6.60;1.63;;;11.70;99.90;;;;;;5047697;28;20460;-77
2023/12/28 11:20:23;;;;;;;12.53;2.30;;;11.70;99.90;;;;;;5033235;28;20535;-78
2023/12/28 11:22:51;;;;;;;6.33;2.30;;;11.80;99.90;;;;;;5038472;28;20450;-77
2023/12/28 11:25:19;;;;;;;10.07;3.77;;;11.80;99.90;;;;;;5037045;28;20487;-78
2023/12/28 11:27:46;;;;;;;13.23;2.20;;;11.90;99.90;;;;;;5037190;28;20447;-78
2023/12/28 11:30:15;;;;;;;6.70;2.43;;;11.90;99.90;;;;;;5037193;28;21021;-77
2023/12/28 11:32:43;;;;;;;6.17;1.77;;;12.00;99.90;;;;;;5038206;28;21105;-78
2023/12/28 11:35:11;;;;;;;4.70;2.20;;;12.20;99.90;;;;;;5033106;28;20461;-76
2023/12/28 11:37:44;;;;;;;6.10;2.07;;;12.30;99.90;;;;;;5032872;28;20729;-77
2023/12/28 11:40:13;;;;;;;8.47;1.47;;;12.30;99.90;;;;;;5035032;28;20985;-77
2023/12/28 11:42:50;;;;;;;6.03;1.90;;;12.40;99.90;;;;;;5035654;28;20460;-78
2023/12/28 11:45:19;;;;;;;12.30;1.93;;;12.40;99.90;;;;;;5036545;28;20446;-77
2023/12/28 11:47:46;;;;;;;5.43;1.70;;;12.40;99.90;;;;;;5037245;28;20549;-78
2023/12/28 11:50:14;;;;;;;5.90;2.37;;;12.40;99.90;;;;;;5041003;28;20568;-79
2023/12/28 11:52:41;;;;;;;8.03;2.00;;;12.40;99.90;;;;;;5043111;28;20488;-79
2023/12/28 11:55:08;;;;;;;7.67;2.03;;;12.30;99.90;;;;;;5040652;28;20460;-78
2023/12/28 11:57:36;;;;;;;6.03;1.60;;;12.30;99.90;;;;;;5039604;28;20489;-78
2023/12/28 12:00:07;;;;;;;5.33;1.67;;;12.40;99.90;;;;;;5041037;28;20522;-77
2023/12/28 12:02:35;;;;;;;11.23;2.23;;;12.30;99.90;;;;;;5045913;28;20458;-80
2023/12/28 12:05:02;;;;;;;8.70;2.20;;;12.30;99.90;;;;;;5041504;28;20524;-78
2023/12/28 12:07:30;;;;;;;6.53;1.67;;;12.30;99.90;;;;;;5040280;28;20491;-79
2023/12/28 12:09:57;;;;;;;3.53;1.93;;;12.30;99.90;;;;;;5041394;28;20566;-79
2023/12/28 12:12:24;;;;;;;7.33;1.63;;;12.40;99.90;;;;;;5041648;28;20461;-79
2023/12/28 12:14:51;;;;;;;10.27;2.23;;;12.50;99.90;;;;;;5041969;28;20485;-79
2023/12/28 12:17:18;;;;;;;13.07;1.73;;;12.60;99.90;;;;;;5041355;28;20452;-78
2023/12/28 12:19:48;;;;;;;7.47;1.73;;;12.50;99.90;;;;;;5038251;28;20492;-77
2023/12/28 12:22:16;;;;;;;3.87;1.37;;;12.40;99.90;;;;;;5037740;28;20480;-75
2023/12/28 12:24:45;;;;;;;7.70;1.93;;;12.30;99.90;;;;;;5038972;28;20446;-80
2023/12/28 12:27:12;;;;;;;7.23;1.97;;;12.30;99.90;;;;;;5041758;28;20472;-77
2023/12/28 12:29:39;;;;;;;7.80;2.63;;;12.30;99.90;;;;;;5030586;28;20560;-80
2023/12/28 12:32:07;;;;;;;4.17;1.50;;;12.40;99.90;;;;;;5042089;28;20517;-77
2023/12/28 12:34:34;;;;;;;10.93;2.77;;;;;;;;;;5039620;28;20469;-79
2023/12/28 12:37:03;;;;;;;7.77;2.57;;;12.50;99.90;;;;;;5036344;28;20488;-80
2023/12/28 12:39:32;;;;;;;6.50;2.87;;;12.70;99.90;;;;;;5038372;28;20551;-79
2023/12/28 12:41:59;;;;;;;6.90;2.23;;;;;;;;;;5039413;28;20485;-77
2023/12/28 12:44:27;;;;;;;5.07;1.70;;;;;;;;;;5042850;28;20534;-79
2023/12/28 12:47:00;;;;;;;10.67;2.70;;;;;;;;;;5043087;28;20481;-80
2023/12/28 12:49:28;;;;;;;4.20;1.80;;;;;;;;;;5038262;28;20558;-80
2023/12/28 12:51:55;;;;;;;6.47;1.73;;;;;;;;;;5043555;28;20506;-78
2023/12/28 12:54:24;;;;;;;5.93;1.97;;;;;;;;;;5043790;28;20450;-80
2023/12/28 12:56:52;;;;;;;4.07;1.47;;;;;;;;;;5043918;28;20485;-80